createdAt,value
2019-04-29T00:02:44.484Z,94732.19
2019-04-29T00:07:50.165Z,94727.50
2019-04-29T00:12:55.934Z,94726.08
2019-04-29T00:18:03.104Z,94726.37
2019-04-29T00:23:08.583Z,94726.52
2019-04-29T00:28:14.463Z,94728.88
2019-04-29T00:33:19.963Z,94724.63
2019-04-29T00:38:43.543Z,94723.34
2019-04-29T00:43:50.563Z,94730.89
2019-04-29T00:48:56.003Z,94740.04
2019-04-29T00:54:03.145Z,94740.91
2019-04-29T00:59:08.724Z,94742.19
2019-04-29T01:04:14.403Z,94734.36
2019-04-29T01:09:20.694Z,94733.30
2019-04-29T01:14:26.125Z,94743.35
2019-04-29T01:19:31.603Z,94730.34
2019-04-29T01:24:37.103Z,94724.22
2019-04-29T01:29:42.723Z,94718.02
2019-04-29T01:34:55.549Z,94712.34
2019-04-29T01:40:02.683Z,94718.84
2019-04-29T01:45:09.369Z,94704.16
2019-04-29T01:50:14.844Z,94706.16
2019-04-29T01:55:20.324Z,94706.88
2019-04-29T02:00:25.806Z,94705.83
2019-04-29T02:05:31.249Z,94705.80
2019-04-29T02:10:37.003Z,94703.59
2019-04-29T02:15:42.484Z,94700.55
2019-04-29T02:20:48.013Z,94694.10
2019-04-29T02:25:53.484Z,94689.27
2019-04-29T02:31:00.687Z,94687.03
2019-04-29T02:36:06.227Z,94677.56
2019-04-29T02:41:13.546Z,94679.49
2019-04-29T02:46:19.144Z,94673.14
2019-04-29T02:51:44.326Z,94685.06
2019-04-29T02:56:51.390Z,94694.78
2019-04-29T03:02:16.245Z,94690.16
2019-04-29T03:07:22.530Z,94679.69
2019-04-29T03:12:28.111Z,94678.55
2019-04-29T03:17:33.644Z,94691.55
2019-04-29T03:22:40.923Z,94687.77
2019-04-29T03:27:46.436Z,94696.12
2019-04-29T03:32:52.242Z,94700.03
2019-04-29T03:37:59.005Z,94692.41
2019-04-29T03:43:04.491Z,94692.55
2019-04-29T03:48:09.985Z,94696.56
2019-04-29T03:53:15.746Z,94693.59
2019-04-29T03:58:21.567Z,94700.10
2019-04-29T04:03:28.610Z,94702.77
2019-04-29T04:08:35.687Z,94711.81
2019-04-29T04:13:41.253Z,94715.58
2019-04-29T04:18:47.412Z,94717.08
2019-04-29T04:23:52.995Z,94736.00
2019-04-29T04:28:58.605Z,94738.28
2019-04-29T04:34:05.163Z,94728.80
2019-04-29T04:39:10.627Z,94726.78
2019-04-29T04:44:16.146Z,94727.16
2019-04-29T04:49:21.683Z,94727.71
2019-04-29T04:54:27.134Z,94735.70
2019-04-29T04:59:32.702Z,94724.20
2019-04-29T05:04:38.183Z,94731.50
2019-04-29T05:09:43.784Z,94732.45
2019-04-29T05:14:49.329Z,94725.30
2019-04-29T05:19:54.829Z,94714.17
2019-04-29T05:25:00.309Z,94712.35
2019-04-29T05:30:06.779Z,94714.41
2019-04-29T05:35:20.756Z,94720.55
2019-04-29T05:40:46.990Z,94719.44
2019-04-29T05:46:10.287Z,94717.84
2019-04-29T05:51:17.403Z,94713.55
2019-04-29T05:56:22.926Z,94713.28
2019-04-29T06:01:29.972Z,94715.36
2019-04-29T06:06:35.644Z,94700.23
2019-04-29T06:11:41.205Z,94693.50
2019-04-29T06:16:46.785Z,94695.27
2019-04-29T06:21:52.515Z,94690.77
2019-04-29T06:26:59.116Z,94686.23
2019-04-29T06:32:04.603Z,94677.91
2019-04-29T06:37:10.146Z,94681.16
2019-04-29T06:42:19.603Z,94679.62
2019-04-29T06:47:22.785Z,94674.78
2019-04-29T06:52:28.298Z,94679.24
2019-04-29T06:57:33.781Z,94671.58
2019-04-29T07:02:39.313Z,94669.67
2019-04-29T07:07:44.764Z,94675.44
2019-04-29T07:12:50.264Z,94671.50
2019-04-29T07:17:55.865Z,94671.53
2019-04-29T07:23:02.465Z,94674.05
2019-04-29T07:28:08.124Z,94664.75
2019-04-29T07:33:13.637Z,94665.64
2019-04-29T07:38:19.145Z,94671.05
2019-04-29T07:43:24.924Z,94666.51
2019-04-29T07:48:30.436Z,94671.89
2019-04-29T07:53:44.799Z,94669.05
2019-04-29T07:58:43.105Z,94658.94
2019-04-29T08:03:48.665Z,94659.97
2019-04-29T08:08:55.705Z,94652.70
2019-04-29T08:14:02.083Z,94658.16
2019-04-29T08:19:07.545Z,94651.78
2019-04-29T08:24:15.933Z,94651.05
2019-04-29T08:29:20.250Z,94635.02
2019-04-29T08:34:25.931Z,94638.07
2019-04-29T08:39:31.407Z,94629.36
2019-04-29T08:44:44.475Z,94626.11
2019-04-29T08:49:50.332Z,94618.77
2019-04-29T08:54:58.962Z,94610.78
2019-04-29T09:00:07.573Z,94601.98
2019-04-29T09:05:13.615Z,94606.11
2019-04-29T09:10:19.373Z,94598.13
2019-04-29T09:15:24.821Z,94599.35
2019-04-29T09:20:30.290Z,94595.03
2019-04-29T09:25:46.450Z,94589.20
2019-04-29T09:30:51.893Z,94584.13
2019-04-29T09:35:57.433Z,94570.91
2019-04-29T09:41:08.460Z,94570.53
2019-04-29T09:46:18.414Z,94554.45
2019-04-29T09:51:27.973Z,94549.63
2019-04-29T09:56:31.125Z,94546.69
2019-04-29T10:01:44.184Z,94541.09
2019-04-29T10:06:51.234Z,94531.16
2019-04-29T10:11:56.824Z,94528.69
2019-04-29T10:17:06.760Z,94522.09
2019-04-29T10:22:13.374Z,94518.59
2019-04-29T10:27:18.834Z,94507.50
2019-04-29T10:32:25.504Z,94514.22
2019-04-29T10:37:32.674Z,94501.34
2019-04-29T10:42:43.097Z,94479.75
2019-04-29T10:47:56.170Z,94486.92
2019-04-29T10:53:02.804Z,94470.72
2019-04-29T10:58:08.698Z,94477.56
2019-04-29T11:03:14.587Z,94484.83
2019-04-29T11:08:21.943Z,94471.41
2019-04-29T11:13:27.386Z,94461.34
2019-04-29T11:18:33.177Z,94464.59
2019-04-29T11:23:42.913Z,94469.05
2019-04-29T11:28:51.266Z,94465.95
2019-04-29T11:33:58.402Z,94453.34
2019-04-29T11:39:09.007Z,94457.61
2019-04-29T11:44:14.063Z,94447.97
2019-04-29T11:49:21.135Z,94442.86
2019-04-29T11:54:26.764Z,94437.66
2019-04-29T11:59:33.828Z,94435.05
2019-04-29T12:04:52.993Z,94452.05
2019-04-29T12:10:02.306Z,94437.47
2019-04-29T12:15:13.612Z,94428.98
2019-04-29T12:20:26.543Z,94423.44
2019-04-29T12:25:32.190Z,94418.72
2019-04-29T12:30:42.203Z,94414.92
2019-04-29T12:36:02.630Z,94414.95
2019-04-29T12:41:30.176Z,94409.17
2019-04-29T12:46:43.272Z,94405.56
2019-04-29T12:51:48.868Z,94401.50
2019-04-29T12:56:54.343Z,94388.48
2019-04-29T13:02:07.609Z,94388.63
2019-04-29T13:07:20.715Z,94381.41
2019-04-29T13:12:30.252Z,94372.16
2019-04-29T13:18:02.178Z,94375.25
2019-04-29T13:23:00.553Z,94375.28
2019-04-29T13:28:04.401Z,94370.86
2019-04-29T13:33:16.561Z,94357.62
2019-04-29T13:38:17.567Z,94368.69
2019-04-29T13:43:25.972Z,94365.52
2019-04-29T13:48:55.806Z,94354.17
2019-04-29T13:53:59.097Z,94364.00
2019-04-29T13:59:09.701Z,94359.59
2019-04-29T14:04:13.258Z,94354.09
2019-04-29T14:09:18.724Z,94361.91
2019-04-29T14:14:24.677Z,94350.28
2019-04-29T14:19:40.879Z,94347.08
2019-04-29T14:24:38.726Z,94346.49
2019-04-29T14:29:44.273Z,94351.67
2019-04-29T14:34:51.354Z,94352.28
2019-04-29T14:39:57.003Z,94361.98
2019-04-29T14:45:22.024Z,94345.34
2019-04-29T14:50:27.683Z,94341.78
2019-04-29T14:55:33.170Z,94330.13
2019-04-29T15:00:52.770Z,94333.84
2019-04-29T15:05:58.393Z,94335.16
2019-04-29T15:11:08.323Z,94329.13
2019-04-29T15:16:14.148Z,94339.70
2019-04-29T15:21:32.664Z,94352.61
2019-04-29T15:26:34.889Z,94351.88
2019-04-29T15:31:42.462Z,94342.95
2019-04-29T15:36:47.625Z,94336.13
2019-04-29T15:41:54.672Z,94332.22
2019-04-29T15:47:00.545Z,94331.24
2019-04-29T15:52:06.204Z,94328.69
2019-04-29T15:57:15.490Z,94321.91
2019-04-29T16:02:19.369Z,94334.98
2019-04-29T16:07:35.525Z,94338.91
2019-04-29T16:12:51.006Z,94340.27
2019-04-29T16:17:54.956Z,94329.41
2019-04-29T16:23:02.060Z,94311.06
2019-04-29T16:28:08.254Z,94320.67
2019-04-29T16:33:15.578Z,94339.11
2019-04-29T16:38:21.227Z,94336.70
2019-04-29T16:43:37.285Z,94336.30
2019-04-29T16:48:42.964Z,94337.63
2019-04-29T16:53:49.406Z,94341.59
2019-04-29T16:58:55.297Z,94346.73
2019-04-29T17:04:05.144Z,94346.40
2019-04-29T17:09:13.666Z,94358.80
2019-04-29T17:14:19.824Z,94354.02
2019-04-29T17:19:25.327Z,94353.53
2019-04-29T17:24:30.844Z,94354.51
2019-04-29T17:29:49.568Z,94357.09
2019-04-29T17:34:59.410Z,94362.59
2019-04-29T17:40:02.373Z,94369.05
2019-04-29T17:45:12.384Z,94377.07
2019-04-29T17:50:29.569Z,94384.13
2019-04-29T17:55:40.242Z,94383.75
2019-04-29T18:00:56.150Z,94372.45
2019-04-29T18:06:17.202Z,94404.41
2019-04-29T18:11:20.568Z,94411.33
2019-04-29T18:16:28.929Z,94414.30
2019-04-29T18:21:52.332Z,94399.93
2019-04-29T18:27:02.730Z,94412.87
2019-04-29T18:32:08.363Z,94425.33
2019-04-29T18:37:16.483Z,94429.33
2019-04-29T18:42:21.129Z,94452.00
2019-04-29T18:47:27.596Z,94444.31
2019-04-29T18:52:35.136Z,94429.14
2019-04-29T18:57:41.749Z,94433.42
2019-04-29T19:02:52.475Z,94450.47
2019-04-29T19:08:01.455Z,94454.16
2019-04-29T19:13:07.074Z,94451.73
2019-04-29T19:18:12.451Z,94448.22
2019-04-29T19:23:22.400Z,94438.37
2019-04-29T19:28:30.248Z,94439.03
2019-04-29T19:33:35.108Z,94431.81
2019-04-29T19:38:38.120Z,94432.22
2019-04-29T19:43:43.773Z,94429.91
2019-04-29T19:48:49.330Z,94428.52
2019-04-29T19:53:55.295Z,94427.75
2019-04-29T19:59:10.388Z,94417.81
2019-04-29T20:04:17.616Z,94412.45
2019-04-29T20:09:23.042Z,94414.36
2019-04-29T20:14:33.428Z,94388.18
2019-04-29T20:19:37.897Z,94399.65
2019-04-29T20:24:49.669Z,94393.63
2019-04-29T20:29:51.063Z,94399.61
2019-04-29T20:35:05.268Z,94383.80
2019-04-29T20:40:06.652Z,94377.05
2019-04-29T20:45:12.780Z,94378.23
2019-04-29T20:50:18.669Z,94389.77
2019-04-29T20:55:24.415Z,94387.33
2019-04-29T21:00:31.569Z,94387.84
2019-04-29T21:05:47.444Z,94381.64
2019-04-29T21:10:46.734Z,94372.76
2019-04-29T21:15:56.043Z,94373.92
2019-04-29T21:21:04.540Z,94366.64
2019-04-29T21:26:08.902Z,94374.06
2019-04-29T21:31:18.544Z,94375.89
2019-04-29T21:36:26.503Z,94380.23
2019-04-29T21:41:35.891Z,94373.31
2019-04-29T21:46:41.487Z,94377.13
2019-04-29T21:51:49.801Z,94368.94
2019-04-29T21:56:55.626Z,94374.23
2019-04-29T22:02:01.493Z,94368.89
2019-04-29T22:07:08.646Z,94368.78
2019-04-29T22:12:20.168Z,94361.69
2019-04-29T22:17:21.423Z,94356.72
2019-04-29T22:22:30.659Z,94349.56
2019-04-29T22:27:39.179Z,94345.25
2019-04-29T22:32:41.896Z,94342.33
2019-04-29T22:37:47.534Z,94341.48
2019-04-29T22:43:08.384Z,94345.47
2019-04-29T22:48:16.861Z,94332.39
2019-04-29T22:53:17.984Z,94338.31
2019-04-29T22:58:24.909Z,94323.70
2019-04-29T23:03:32.717Z,94336.69
2019-04-29T23:08:38.668Z,94325.02
2019-04-29T23:13:46.161Z,94334.50
2019-04-29T23:18:51.464Z,94323.89
2019-04-29T23:24:01.744Z,94323.27
2019-04-29T23:29:07.433Z,94317.36
2019-04-29T23:34:12.944Z,94316.56
2019-04-29T23:39:18.465Z,94313.84
2019-04-29T23:44:23.963Z,94307.97
2019-04-29T23:49:29.403Z,94299.69
2019-04-29T23:54:44.266Z,94299.50
